createdAt,value
2017-12-16T00:00:54.194Z,19.33
2017-12-16T00:03:22.722Z,19.33
2017-12-16T00:05:51.421Z,19.31
2017-12-16T00:08:19.691Z,19.34
2017-12-16T00:10:47.998Z,19.34
2017-12-16T00:13:16.427Z,19.32
2017-12-16T00:15:44.855Z,19.33
2017-12-16T00:18:13.223Z,19.30
2017-12-16T00:20:41.642Z,19.34
2017-12-16T00:23:09.891Z,19.30
2017-12-16T00:25:38.254Z,19.27
2017-12-16T00:28:06.688Z,19.17
2017-12-16T00:30:35.199Z,19.23
2017-12-16T00:33:03.479Z,19.26
2017-12-16T00:35:31.759Z,19.24
2017-12-16T00:38:00.199Z,19.30
2017-12-16T00:40:28.622Z,19.33
2017-12-16T00:42:56.960Z,19.32
2017-12-16T00:45:25.290Z,19.36
2017-12-16T00:47:53.731Z,19.31
2017-12-16T00:50:22.051Z,19.27
2017-12-16T00:52:50.313Z,19.26
2017-12-16T00:55:18.603Z,19.25
2017-12-16T00:57:47.063Z,19.23
2017-12-16T01:00:15.554Z,19.19
2017-12-16T01:02:43.844Z,19.17
2017-12-16T01:05:12.336Z,19.20
2017-12-16T01:07:40.628Z,19.17
2017-12-16T01:10:09.055Z,19.18
2017-12-16T01:12:37.527Z,19.19
2017-12-16T01:15:05.799Z,19.26
2017-12-16T01:17:34.108Z,19.35
2017-12-16T01:20:02.407Z,19.36
2017-12-16T01:22:30.692Z,19.39
2017-12-16T01:24:58.952Z,19.36
2017-12-16T01:27:27.279Z,19.38
2017-12-16T01:29:55.807Z,19.39
2017-12-16T01:32:24.101Z,19.30
2017-12-16T01:39:09.321Z,19.25
2017-12-16T01:41:37.626Z,19.21
2017-12-16T01:44:05.912Z,19.14
2017-12-16T01:46:34.388Z,19.16
2017-12-16T01:49:02.797Z,19.16
2017-12-16T01:51:31.275Z,19.11
2017-12-16T01:53:59.535Z,19.11
2017-12-16T01:56:27.871Z,19.11
2017-12-16T01:58:56.122Z,19.14
2017-12-16T02:01:24.697Z,19.16
2017-12-16T02:03:52.987Z,19.23
2017-12-16T02:06:21.308Z,19.28
2017-12-16T02:08:49.646Z,19.30
2017-12-16T02:11:18.070Z,19.31
2017-12-16T02:13:46.319Z,19.32
2017-12-16T02:16:14.652Z,19.28
2017-12-16T02:18:42.972Z,19.27
2017-12-16T02:21:11.623Z,19.24
2017-12-16T02:23:39.935Z,19.26
2017-12-16T02:26:08.207Z,19.20
2017-12-16T02:28:36.471Z,19.24
2017-12-16T02:31:04.828Z,19.18
2017-12-16T02:33:33.173Z,19.18
2017-12-16T02:36:01.605Z,19.12
2017-12-16T02:38:30.103Z,19.10
2017-12-16T02:40:58.392Z,19.09
2017-12-16T02:43:26.879Z,19.09
2017-12-16T02:45:55.151Z,19.15
2017-12-16T02:48:23.407Z,19.25
2017-12-16T02:50:51.741Z,19.28
2017-12-16T02:53:20.071Z,19.27
2017-12-16T02:55:48.503Z,19.26
2017-12-16T02:58:16.755Z,19.25
2017-12-16T03:00:45.028Z,19.25
2017-12-16T03:03:13.503Z,19.24
2017-12-16T03:05:41.865Z,19.26
2017-12-16T03:08:10.144Z,19.39
2017-12-16T03:10:38.448Z,19.55
2017-12-16T03:13:06.683Z,19.63
2017-12-16T03:15:35.000Z,19.63
2017-12-16T03:18:03.324Z,19.57
2017-12-16T03:20:31.643Z,19.59
2017-12-16T03:22:59.951Z,19.61
2017-12-16T03:25:28.234Z,19.65
2017-12-16T03:27:56.522Z,19.60
2017-12-16T03:30:24.960Z,19.65
2017-12-16T03:32:53.217Z,19.65
2017-12-16T03:35:21.523Z,19.66
2017-12-16T03:37:49.834Z,19.59
2017-12-16T03:40:18.538Z,19.62
2017-12-16T03:42:46.826Z,19.61
2017-12-16T03:45:15.152Z,19.66
2017-12-16T03:47:43.435Z,19.66
2017-12-16T03:50:11.723Z,19.68
2017-12-16T03:52:40.058Z,19.67
2017-12-16T03:55:08.373Z,19.69
2017-12-16T03:57:36.614Z,19.59
2017-12-16T04:00:04.892Z,19.51
2017-12-16T04:02:33.339Z,19.57
2017-12-16T04:05:01.631Z,19.54
2017-12-16T04:07:30.127Z,19.55
2017-12-16T04:09:58.375Z,19.62
2017-12-16T04:12:26.881Z,19.58
2017-12-16T04:14:55.145Z,19.60
2017-12-16T04:17:23.479Z,19.64
2017-12-16T04:19:51.811Z,19.59
2017-12-16T04:22:20.199Z,19.54
2017-12-16T04:24:48.468Z,19.50
2017-12-16T04:27:16.776Z,19.42
2017-12-16T04:29:45.183Z,19.43
2017-12-16T04:32:13.493Z,19.42
2017-12-16T04:34:41.844Z,19.36
2017-12-16T04:37:10.168Z,19.42
2017-12-16T04:39:38.643Z,19.41
2017-12-16T04:42:06.971Z,19.41
2017-12-16T04:44:35.219Z,19.48
2017-12-16T04:47:03.583Z,19.47
2017-12-16T04:49:31.875Z,19.50
2017-12-16T04:52:00.355Z,19.50
2017-12-16T04:54:28.725Z,19.49
2017-12-16T04:56:57.024Z,19.48
2017-12-16T04:59:25.315Z,19.42
2017-12-16T05:04:49.461Z,19.43
2017-12-16T05:07:18.310Z,19.37
2017-12-16T05:09:47.086Z,19.34
2017-12-16T05:12:15.708Z,19.30
2017-12-16T05:14:44.396Z,19.39
2017-12-16T05:17:12.989Z,19.44
2017-12-16T05:19:41.772Z,19.52
2017-12-16T05:22:10.404Z,19.48
2017-12-16T05:24:39.126Z,19.48
2017-12-16T05:27:07.707Z,19.48
2017-12-16T05:29:36.461Z,19.48
2017-12-16T05:32:05.443Z,19.49
2017-12-16T05:34:33.888Z,19.46
2017-12-16T05:37:02.477Z,19.44
2017-12-16T05:39:31.241Z,19.44
2017-12-16T05:41:59.936Z,19.45
2017-12-16T05:44:28.697Z,19.35
2017-12-16T05:46:57.528Z,19.28
2017-12-16T05:49:29.125Z,19.31
2017-12-16T05:51:57.737Z,19.34
2017-12-16T05:54:26.321Z,19.42
2017-12-16T05:56:55.160Z,19.48
2017-12-16T05:59:23.819Z,19.45
2017-12-16T06:01:54.291Z,19.44
2017-12-16T06:04:23.028Z,19.43
2017-12-16T06:06:51.626Z,19.42
2017-12-16T06:09:20.237Z,19.41
2017-12-16T06:11:49.011Z,19.41
2017-12-16T06:14:17.582Z,19.37
2017-12-16T06:16:46.360Z,19.36
2017-12-16T06:19:14.941Z,19.35
2017-12-16T06:21:43.657Z,19.31
2017-12-16T06:24:12.311Z,19.30
2017-12-16T06:26:41.013Z,19.34
2017-12-16T06:29:09.600Z,19.36
2017-12-16T06:31:38.261Z,19.36
2017-12-16T06:34:06.889Z,19.38
2017-12-16T06:36:35.574Z,19.35
2017-12-16T06:39:04.343Z,19.37
2017-12-16T06:41:32.974Z,19.41
2017-12-16T06:44:01.660Z,19.44
2017-12-16T06:46:30.476Z,19.51
2017-12-16T06:48:59.029Z,19.52
2017-12-16T06:51:27.683Z,19.53
2017-12-16T06:53:56.774Z,19.53
2017-12-16T06:56:25.352Z,19.53
2017-12-16T06:58:54.095Z,19.55
2017-12-16T07:01:23.018Z,19.57
2017-12-16T07:03:51.768Z,19.59
2017-12-16T07:06:20.908Z,19.61
2017-12-16T07:08:49.738Z,19.59
2017-12-16T07:11:18.498Z,19.63
2017-12-16T07:13:47.228Z,19.63
2017-12-16T07:16:16.182Z,19.65
2017-12-16T07:18:44.902Z,19.62
2017-12-16T07:21:13.689Z,19.62
2017-12-16T07:23:43.064Z,19.65
2017-12-16T07:26:12.963Z,19.67
2017-12-16T07:28:42.030Z,19.69
2017-12-16T07:31:12.545Z,19.70
2017-12-16T07:33:42.050Z,19.72
2017-12-16T07:36:10.764Z,19.73
2017-12-16T07:38:39.668Z,19.76
2017-12-16T07:41:08.509Z,19.79
2017-12-16T07:43:37.328Z,19.79
2017-12-16T07:46:05.893Z,19.79
2017-12-16T07:48:34.511Z,19.81
2017-12-16T07:51:03.052Z,19.82
2017-12-16T07:53:31.586Z,19.85
2017-12-16T07:56:00.266Z,19.83
2017-12-16T07:58:28.888Z,19.82
2017-12-16T08:00:57.903Z,19.87
2017-12-16T08:03:35.229Z,19.87
2017-12-16T08:06:04.000Z,19.84
2017-12-16T08:08:32.853Z,19.85
2017-12-16T08:11:01.756Z,19.89
2017-12-16T08:13:30.661Z,19.89
2017-12-16T08:15:59.152Z,19.88
2017-12-16T08:18:27.820Z,19.91
2017-12-16T08:20:56.335Z,19.91
2017-12-16T08:23:26.029Z,19.91
2017-12-16T08:25:54.852Z,19.92
2017-12-16T08:28:23.394Z,19.93
2017-12-16T08:30:52.053Z,19.96
2017-12-16T08:33:20.683Z,19.94
2017-12-16T08:35:49.476Z,19.94
2017-12-16T08:38:17.946Z,19.93
2017-12-16T08:40:46.561Z,19.94
2017-12-16T08:43:15.258Z,19.94
2017-12-16T08:45:43.959Z,19.95
2017-12-16T08:48:12.508Z,19.96
2017-12-16T08:50:41.189Z,19.96
2017-12-16T08:53:09.715Z,19.95
2017-12-16T08:55:39.752Z,19.98
2017-12-16T08:58:08.605Z,20.04
2017-12-16T09:00:37.302Z,20.00
2017-12-16T09:03:05.768Z,20.00
2017-12-16T09:05:35.009Z,20.00
2017-12-16T09:08:03.686Z,20.00
2017-12-16T09:10:32.746Z,20.01
2017-12-16T09:13:01.672Z,20.02
2017-12-16T09:15:30.599Z,20.02
2017-12-16T09:17:59.273Z,20.02
2017-12-16T09:20:28.645Z,20.05
2017-12-16T09:22:58.187Z,20.07
2017-12-16T09:25:26.733Z,20.09
2017-12-16T09:27:55.621Z,20.11
2017-12-16T09:30:24.529Z,20.11
2017-12-16T09:32:53.429Z,20.12
2017-12-16T09:35:22.169Z,20.13
2017-12-16T09:37:50.632Z,20.15
2017-12-16T09:40:19.468Z,20.10
2017-12-16T09:42:48.305Z,20.26
2017-12-16T09:45:17.295Z,20.46
2017-12-16T09:47:46.154Z,20.42
2017-12-16T09:50:15.760Z,20.36
2017-12-16T09:52:44.257Z,20.31
2017-12-16T09:55:12.853Z,20.35
2017-12-16T09:57:41.550Z,20.28
2017-12-16T10:00:10.392Z,20.25
2017-12-16T10:02:38.946Z,20.27
2017-12-16T10:05:07.591Z,20.23
2017-12-16T10:07:36.464Z,20.25
2017-12-16T10:10:05.212Z,20.24
2017-12-16T10:12:33.701Z,20.25
2017-12-16T10:15:02.356Z,20.20
2017-12-16T10:17:31.113Z,20.18
2017-12-16T10:19:59.720Z,20.14
2017-12-16T10:22:28.576Z,20.14
2017-12-16T10:24:57.197Z,20.14
2017-12-16T10:27:26.044Z,20.11
2017-12-16T10:29:55.097Z,20.10
2017-12-16T10:32:23.832Z,20.08
2017-12-16T10:34:52.534Z,20.05
2017-12-16T10:37:21.186Z,20.03
2017-12-16T10:39:49.900Z,20.03
2017-12-16T10:42:18.969Z,19.95
2017-12-16T10:44:47.502Z,20.02
2017-12-16T10:47:16.145Z,20.04
2017-12-16T10:49:44.796Z,20.03
2017-12-16T10:52:13.732Z,20.01
2017-12-16T10:54:42.344Z,20.03
2017-12-16T10:57:11.073Z,20.03
2017-12-16T10:59:40.308Z,20.02
2017-12-16T11:02:09.518Z,20.06
2017-12-16T11:04:39.550Z,20.05
2017-12-16T11:07:09.232Z,20.06
2017-12-16T11:09:37.851Z,20.08
2017-12-16T11:12:06.401Z,20.07
2017-12-16T11:14:35.087Z,20.04
2017-12-16T11:17:03.888Z,20.04
2017-12-16T11:19:32.562Z,20.06
2017-12-16T11:22:01.260Z,20.08
2017-12-16T11:24:29.828Z,20.09
2017-12-16T11:26:58.521Z,20.09
2017-12-16T11:29:27.128Z,20.06
2017-12-16T11:31:55.675Z,20.06
2017-12-16T11:34:24.369Z,20.08
2017-12-16T11:36:52.999Z,20.08
2017-12-16T11:39:22.197Z,20.07
2017-12-16T11:41:50.974Z,20.07
2017-12-16T11:44:19.885Z,20.07
2017-12-16T11:46:48.794Z,20.07
2017-12-16T11:49:17.438Z,20.09
2017-12-16T11:51:46.137Z,20.09
2017-12-16T11:54:14.670Z,20.07
2017-12-16T11:56:43.386Z,20.09
2017-12-16T11:59:11.926Z,20.09
2017-12-16T12:01:41.033Z,20.08
2017-12-16T12:04:15.474Z,20.08
2017-12-16T12:06:44.251Z,20.08
2017-12-16T12:09:12.749Z,20.08
2017-12-16T12:11:41.412Z,20.08
2017-12-16T12:14:10.052Z,20.10
2017-12-16T12:16:38.837Z,20.12
2017-12-16T12:19:07.286Z,20.12
2017-12-16T12:21:35.820Z,20.12
2017-12-16T12:24:04.600Z,20.10
2017-12-16T12:26:33.431Z,20.08
2017-12-16T12:29:01.903Z,20.11
2017-12-16T12:31:30.657Z,20.10
2017-12-16T12:33:59.624Z,20.10
2017-12-16T12:36:28.136Z,20.11
2017-12-16T12:38:56.932Z,20.12
2017-12-16T12:41:25.542Z,20.10
2017-12-16T12:43:54.165Z,20.09
2017-12-16T12:46:22.959Z,20.11
2017-12-16T12:48:51.673Z,20.12
2017-12-16T12:51:20.514Z,20.13
2017-12-16T12:53:49.072Z,20.15
2017-12-16T12:56:17.863Z,20.11
2017-12-16T12:58:46.773Z,20.10
2017-12-16T13:01:15.423Z,20.12
2017-12-16T13:03:44.004Z,20.12
2017-12-16T13:06:12.509Z,20.11
2017-12-16T13:08:41.481Z,20.13
2017-12-16T13:11:10.252Z,20.12
2017-12-16T13:13:40.067Z,20.12
2017-12-16T13:16:08.740Z,20.12
2017-12-16T13:18:37.316Z,20.15
2017-12-16T13:21:06.256Z,20.13
2017-12-16T13:23:34.894Z,20.14
2017-12-16T13:26:03.626Z,20.12
2017-12-16T13:28:32.121Z,20.13
2017-12-16T13:31:00.833Z,20.12
2017-12-16T13:33:30.306Z,20.13
2017-12-16T13:35:59.033Z,20.13
2017-12-16T13:38:27.960Z,20.13
2017-12-16T13:40:56.669Z,20.15
2017-12-16T13:43:25.256Z,20.15
2017-12-16T13:45:54.088Z,20.16
2017-12-16T13:48:22.724Z,20.13
2017-12-16T13:50:51.814Z,20.13
2017-12-16T13:53:20.664Z,20.13
2017-12-16T13:55:49.519Z,20.15
2017-12-16T13:58:18.690Z,20.16
2017-12-16T14:00:47.400Z,20.17
2017-12-16T14:03:16.212Z,20.21
2017-12-16T14:05:45.328Z,20.20
2017-12-16T14:08:14.127Z,20.20
2017-12-16T14:10:42.632Z,20.20
2017-12-16T14:13:11.117Z,20.20
2017-12-16T14:15:39.865Z,20.20
2017-12-16T14:18:08.509Z,20.24
2017-12-16T14:20:37.133Z,20.19
2017-12-16T14:23:05.833Z,20.21
2017-12-16T14:25:34.429Z,20.20
2017-12-16T14:28:03.000Z,20.17
2017-12-16T14:30:31.989Z,20.17
2017-12-16T14:33:00.866Z,20.25
2017-12-16T14:35:29.565Z,20.28
2017-12-16T14:37:58.256Z,20.25
2017-12-16T14:40:26.865Z,20.19
2017-12-16T14:42:56.252Z,20.15
2017-12-16T14:45:25.000Z,20.12
2017-12-16T14:47:53.580Z,20.16
2017-12-16T14:50:22.180Z,20.16
2017-12-16T14:52:50.965Z,20.22
2017-12-16T14:55:19.598Z,20.24
2017-12-16T14:57:48.332Z,20.27
2017-12-16T15:00:16.881Z,20.28
2017-12-16T15:02:45.560Z,20.27
2017-12-16T15:05:14.227Z,20.30
2017-12-16T15:07:43.012Z,20.29
2017-12-16T15:10:11.688Z,20.31
2017-12-16T15:12:40.292Z,20.31
2017-12-16T15:15:09.232Z,20.28
2017-12-16T15:17:38.020Z,20.28
2017-12-16T15:20:06.664Z,20.30
2017-12-16T15:22:35.369Z,20.30
2017-12-16T15:25:03.956Z,20.29
2017-12-16T15:27:32.576Z,20.27
2017-12-16T15:30:01.077Z,20.27
2017-12-16T15:32:29.760Z,20.24
2017-12-16T15:34:58.432Z,20.26
2017-12-16T15:37:27.542Z,20.25
2017-12-16T15:39:56.197Z,20.24
2017-12-16T15:42:25.118Z,20.24
2017-12-16T15:44:53.889Z,20.22
2017-12-16T15:47:22.849Z,20.24
2017-12-16T15:49:51.548Z,20.22
2017-12-16T15:52:20.264Z,20.25
2017-12-16T15:54:49.416Z,20.24
2017-12-16T15:57:19.091Z,20.25
2017-12-16T15:59:48.020Z,20.21
2017-12-16T16:02:16.976Z,20.21
2017-12-16T16:04:53.034Z,20.17
2017-12-16T16:07:21.668Z,20.17
2017-12-16T16:09:50.268Z,20.18
2017-12-16T16:12:19.092Z,20.20
2017-12-16T16:14:47.897Z,20.20
2017-12-16T16:17:16.504Z,20.23
2017-12-16T16:19:44.984Z,20.20
2017-12-16T16:22:13.704Z,20.21
2017-12-16T16:24:42.664Z,20.16
2017-12-16T16:27:11.210Z,20.16
2017-12-16T16:29:40.136Z,20.15
2017-12-16T16:32:08.942Z,20.16
2017-12-16T16:34:37.592Z,20.17
2017-12-16T16:37:06.335Z,20.14
2017-12-16T16:39:39.317Z,20.13
2017-12-16T16:42:08.432Z,20.13
2017-12-16T16:44:37.074Z,20.12
2017-12-16T16:47:06.190Z,20.10
2017-12-16T16:49:34.897Z,20.12
2017-12-16T16:52:03.552Z,20.12
2017-12-16T16:54:32.224Z,20.10
2017-12-16T16:57:00.948Z,20.10
2017-12-16T16:59:29.492Z,20.11
2017-12-16T17:01:59.581Z,20.11
2017-12-16T17:04:28.213Z,20.11
2017-12-16T17:06:57.061Z,20.10
2017-12-16T17:09:25.700Z,20.11
2017-12-16T17:11:54.435Z,20.08
2017-12-16T17:14:25.144Z,20.09
2017-12-16T17:16:54.233Z,20.06
2017-12-16T17:19:22.993Z,20.08
2017-12-16T17:21:51.692Z,20.08
2017-12-16T17:24:20.512Z,20.08
2017-12-16T17:26:49.072Z,20.09
2017-12-16T17:29:17.989Z,20.09
2017-12-16T17:31:46.642Z,20.08
2017-12-16T17:34:15.342Z,20.05
2017-12-16T17:36:44.156Z,20.06
2017-12-16T17:39:12.930Z,20.07
2017-12-16T17:41:41.793Z,20.07
2017-12-16T17:44:10.505Z,20.04
2017-12-16T17:46:39.262Z,20.04
2017-12-16T17:49:07.712Z,20.04
2017-12-16T17:51:36.397Z,20.04
2017-12-16T17:54:05.059Z,20.04
2017-12-16T17:56:33.762Z,20.03
2017-12-16T17:59:02.216Z,20.03
2017-12-16T18:01:31.487Z,20.06
2017-12-16T18:04:00.281Z,20.04
2017-12-16T18:06:29.888Z,20.04
2017-12-16T18:08:58.416Z,20.05
2017-12-16T18:11:27.232Z,20.04
2017-12-16T18:13:55.920Z,20.04
2017-12-16T18:16:24.913Z,20.05
2017-12-16T18:18:53.589Z,20.03
2017-12-16T18:21:23.501Z,20.01
2017-12-16T18:23:52.057Z,20.03
2017-12-16T18:26:20.757Z,20.03
2017-12-16T18:28:49.422Z,20.06
2017-12-16T18:31:18.100Z,20.05
2017-12-16T18:33:46.873Z,20.04
2017-12-16T18:36:15.525Z,20.06
2017-12-16T18:38:44.108Z,20.05
2017-12-16T18:41:12.690Z,20.04
2017-12-16T18:43:41.586Z,20.01
2017-12-16T18:46:10.895Z,20.00
2017-12-16T18:48:39.920Z,20.00
2017-12-16T18:51:09.327Z,20.02
2017-12-16T18:53:38.627Z,19.98
2017-12-16T18:56:07.268Z,19.98
2017-12-16T18:58:36.005Z,20.00
2017-12-16T19:01:05.084Z,19.98
2017-12-16T19:03:33.803Z,19.95
2017-12-16T19:06:02.610Z,20.01
2017-12-16T19:08:31.268Z,19.97
2017-12-16T19:11:00.581Z,19.92
2017-12-16T19:13:29.229Z,19.90
2017-12-16T19:15:57.864Z,19.83
2017-12-16T19:18:26.481Z,19.81
2017-12-16T19:20:55.167Z,19.81
2017-12-16T19:23:24.062Z,19.79
2017-12-16T19:25:53.047Z,19.76
2017-12-16T19:28:21.869Z,19.73
2017-12-16T19:30:55.052Z,19.70
2017-12-16T19:33:24.465Z,19.65
2017-12-16T19:35:53.632Z,19.64
2017-12-16T19:38:22.384Z,19.63
2017-12-16T19:40:51.101Z,19.69
2017-12-16T19:43:21.271Z,19.68
2017-12-16T19:45:50.313Z,19.71
2017-12-16T19:48:19.011Z,19.70
2017-12-16T19:50:47.494Z,19.71
2017-12-16T19:53:18.674Z,19.70
2017-12-16T19:55:48.796Z,19.69
2017-12-16T19:58:17.537Z,19.70
2017-12-16T20:00:46.502Z,19.70
2017-12-16T20:03:15.380Z,19.69
2017-12-16T20:05:43.919Z,19.69
2017-12-16T20:08:12.619Z,19.69
2017-12-16T20:10:42.401Z,19.68
2017-12-16T20:13:11.104Z,19.66
2017-12-16T20:15:39.826Z,19.65
2017-12-16T20:18:08.651Z,19.70
2017-12-16T20:20:37.161Z,19.74
2017-12-16T20:23:06.403Z,19.86
2017-12-16T20:25:36.359Z,19.92
2017-12-16T20:28:05.114Z,19.90
2017-12-16T20:30:34.749Z,19.85
2017-12-16T20:33:03.531Z,19.82
2017-12-16T20:35:32.032Z,19.81
2017-12-16T20:38:00.815Z,19.78
2017-12-16T20:40:29.394Z,19.77
2017-12-16T20:42:57.991Z,19.78
2017-12-16T20:45:26.759Z,19.76
2017-12-16T20:47:55.337Z,19.70
2017-12-16T20:50:23.920Z,19.75
2017-12-16T20:52:52.531Z,19.63
2017-12-16T20:55:21.236Z,19.62
2017-12-16T20:57:49.841Z,19.69
2017-12-16T21:00:18.644Z,19.50
2017-12-16T21:02:47.524Z,19.52
2017-12-16T21:05:16.385Z,19.48
2017-12-16T21:07:46.264Z,19.41
2017-12-16T21:10:15.052Z,19.49
2017-12-16T21:12:43.567Z,19.42
2017-12-16T21:15:12.481Z,19.47
2017-12-16T21:17:41.088Z,19.46
2017-12-16T21:20:09.993Z,19.44
2017-12-16T21:22:39.212Z,19.41
2017-12-16T21:25:07.946Z,19.42
2017-12-16T21:27:36.853Z,19.48
2017-12-16T21:30:05.662Z,19.47
2017-12-16T21:32:34.263Z,19.45
2017-12-16T21:35:02.825Z,19.45
2017-12-16T21:37:33.809Z,19.46
2017-12-16T21:40:03.328Z,19.43
2017-12-16T21:42:31.990Z,19.42
2017-12-16T21:45:00.930Z,19.39
2017-12-16T21:47:29.829Z,19.34
2017-12-16T21:49:58.776Z,19.37
2017-12-16T21:52:27.349Z,19.32
2017-12-16T21:54:56.265Z,19.31
2017-12-16T21:57:24.850Z,19.31
2017-12-16T21:59:53.512Z,19.27
2017-12-16T22:02:22.166Z,19.24
2017-12-16T22:04:52.659Z,19.21
2017-12-16T22:07:21.366Z,19.19
2017-12-16T22:09:50.152Z,19.17
2017-12-16T22:12:18.681Z,19.18
2017-12-16T22:14:47.688Z,19.16
2017-12-16T22:17:17.710Z,19.11
2017-12-16T22:19:46.806Z,19.11
2017-12-16T22:22:15.392Z,19.10
2017-12-16T22:24:44.114Z,19.10
2017-12-16T22:27:12.908Z,19.10
2017-12-16T22:29:41.564Z,19.09
2017-12-16T22:32:10.301Z,19.10
2017-12-16T22:34:39.338Z,19.08
2017-12-16T22:37:07.920Z,19.07
2017-12-16T22:39:38.752Z,19.08
2017-12-16T22:42:07.396Z,19.09
2017-12-16T22:44:35.964Z,19.01
2017-12-16T22:47:04.635Z,18.89
2017-12-16T22:49:33.385Z,19.00
2017-12-16T22:52:02.214Z,19.10
2017-12-16T22:54:31.177Z,19.11
2017-12-16T22:57:00.014Z,19.15
2017-12-16T22:59:28.633Z,19.20
2017-12-16T23:01:57.259Z,19.24
2017-12-16T23:04:26.348Z,19.26
2017-12-16T23:06:55.100Z,19.31
2017-12-16T23:09:23.756Z,19.31
2017-12-16T23:11:52.638Z,19.33
2017-12-16T23:14:21.500Z,19.33
2017-12-16T23:16:50.338Z,19.34
2017-12-16T23:19:18.886Z,19.34
2017-12-16T23:21:47.754Z,19.33
2017-12-16T23:24:16.338Z,19.38
2017-12-16T23:26:44.881Z,19.39
2017-12-16T23:29:13.639Z,19.41
2017-12-16T23:31:42.842Z,19.39
2017-12-16T23:34:11.352Z,19.42
2017-12-16T23:36:40.440Z,19.42
2017-12-16T23:39:09.168Z,19.42
2017-12-16T23:41:37.999Z,19.42
2017-12-16T23:44:06.570Z,19.36
2017-12-16T23:46:35.300Z,19.44
2017-12-16T23:49:03.914Z,19.44
2017-12-16T23:51:32.451Z,19.43
2017-12-16T23:54:01.186Z,19.45
2017-12-16T23:56:29.916Z,19.45
2017-12-16T23:58:58.622Z,19.45
